createdAt,value
2023-04-09T00:01:05.439Z,14.20
2023-04-09T00:03:32.608Z,14.65
2023-04-09T00:05:59.986Z,15.18
2023-04-09T00:08:27.156Z,15.27
2023-04-09T00:10:54.427Z,15.98
2023-04-09T00:13:35.425Z,14.35
2023-04-09T00:16:06.185Z,13.52
2023-04-09T00:18:33.383Z,15.18
2023-04-09T00:21:00.627Z,14.93
2023-04-09T00:23:27.821Z,15.07
2023-04-09T00:25:54.932Z,14.27
2023-04-09T00:28:22.067Z,14.95
2023-04-09T00:30:49.226Z,14.73
2023-04-09T00:33:16.335Z,14.75
2023-04-09T00:35:43.580Z,14.38
2023-04-09T00:38:11.045Z,15.18
2023-04-09T00:40:38.129Z,14.30
2023-04-09T00:43:05.704Z,13.73
2023-04-09T00:45:33.330Z,13.73
2023-04-09T00:48:00.540Z,14.57
2023-04-09T00:50:27.790Z,14.27
2023-04-09T00:52:55.188Z,14.55
2023-04-09T00:55:23.135Z,15.05
2023-04-09T00:57:50.287Z,14.88
2023-04-09T01:00:17.546Z,14.48
2023-04-09T01:02:45.343Z,14.77
2023-04-09T01:05:13.377Z,14.55
2023-04-09T01:07:40.753Z,13.05
2023-04-09T01:10:17.029Z,15.35
2023-04-09T01:13:13.672Z,14.27
2023-04-09T01:15:45.104Z,15.60
2023-04-09T01:18:16.447Z,15.00
2023-04-09T01:20:44.474Z,14.10
2023-04-09T01:23:11.605Z,14.02
2023-04-09T01:25:46.210Z,14.45
2023-04-09T01:28:17.268Z,14.45
2023-04-09T01:30:49.625Z,14.13
2023-04-09T01:33:19.056Z,14.15
2023-04-09T01:35:50.431Z,14.80
2023-04-09T01:38:19.159Z,15.40
2023-04-09T01:40:46.608Z,14.30
2023-04-09T01:43:14.888Z,14.43
2023-04-09T01:45:42.520Z,14.00
2023-04-09T01:48:10.355Z,14.98
2023-04-09T01:50:38.093Z,15.98
2023-04-09T01:53:05.284Z,16.10
2023-04-09T01:55:32.585Z,15.85
2023-04-09T01:57:59.750Z,15.52
2023-04-09T02:00:30.948Z,15.15
2023-04-09T02:03:04.313Z,15.45
2023-04-09T02:05:36.277Z,15.20
2023-04-09T02:08:04.272Z,16.02
2023-04-09T02:10:32.370Z,16.15
2023-04-09T02:13:01.089Z,16.02
2023-04-09T02:15:29.262Z,15.00
2023-04-09T02:17:56.462Z,15.50
2023-04-09T02:20:24.727Z,14.77
2023-04-09T02:22:51.830Z,15.20
2023-04-09T02:25:18.983Z,14.98
2023-04-09T02:27:46.130Z,15.00
2023-04-09T02:30:13.357Z,15.10
2023-04-09T02:32:40.559Z,15.15
2023-04-09T02:35:08.276Z,15.70
2023-04-09T02:37:35.675Z,15.52
2023-04-09T02:40:03.239Z,14.93
2023-04-09T02:42:30.354Z,15.32
2023-04-09T02:44:57.463Z,15.30
2023-04-09T02:47:27.135Z,15.90
2023-04-09T02:49:54.258Z,13.88
2023-04-09T02:52:24.286Z,15.23
2023-04-09T02:54:51.459Z,15.30
2023-04-09T02:57:18.816Z,14.63
2023-04-09T02:59:46.388Z,15.50
2023-04-09T03:02:13.899Z,14.95
2023-04-09T03:04:41.144Z,15.73
2023-04-09T03:07:08.326Z,14.73
2023-04-09T03:09:35.599Z,16.02
2023-04-09T03:12:03.015Z,15.27
2023-04-09T03:14:30.266Z,15.18
2023-04-09T03:16:57.396Z,15.50
2023-04-09T03:19:24.543Z,15.23
2023-04-09T03:21:51.715Z,14.95
2023-04-09T03:24:23.068Z,14.70
2023-04-09T03:26:51.286Z,15.05
2023-04-09T03:29:18.557Z,15.85
2023-04-09T03:31:45.678Z,15.32
2023-04-09T03:34:12.832Z,15.55
2023-04-09T03:36:39.959Z,14.40
2023-04-09T03:39:22.653Z,14.73
2023-04-09T03:41:49.833Z,14.10
2023-04-09T03:44:18.574Z,15.27
2023-04-09T03:46:56.354Z,14.35
2023-04-09T03:49:24.300Z,13.13
2023-04-09T03:51:52.168Z,14.18
2023-04-09T03:54:19.789Z,14.52
2023-04-09T03:56:47.152Z,14.18
2023-04-09T03:59:16.337Z,15.00
2023-04-09T04:01:48.024Z,14.38
2023-04-09T04:04:15.785Z,13.85
2023-04-09T04:06:53.541Z,14.05
2023-04-09T04:09:28.194Z,14.20
2023-04-09T04:11:58.985Z,13.63
2023-04-09T04:14:39.479Z,14.60
2023-04-09T04:17:17.288Z,14.23
2023-04-09T04:19:44.778Z,14.10
2023-04-09T04:22:11.929Z,13.95
2023-04-09T04:24:42.617Z,13.15
2023-04-09T04:27:09.856Z,13.82
2023-04-09T04:29:37.656Z,14.73
2023-04-09T04:32:11.820Z,14.07
2023-04-09T04:34:39.291Z,14.20
2023-04-09T04:37:16.463Z,14.60
2023-04-09T04:39:43.859Z,13.73
2023-04-09T04:42:15.297Z,13.50
2023-04-09T04:44:42.683Z,14.25
2023-04-09T04:47:29.791Z,13.25
2023-04-09T04:49:58.691Z,13.95
2023-04-09T04:52:26.313Z,13.18
2023-04-09T04:54:54.708Z,13.98
2023-04-09T04:57:24.087Z,12.95
2023-04-09T04:59:51.469Z,14.70
2023-04-09T05:02:19.622Z,13.82
2023-04-09T05:05:15.408Z,12.23
2023-04-09T05:07:48.654Z,14.40
2023-04-09T05:10:15.867Z,14.20
2023-04-09T05:12:43.890Z,13.98
2023-04-09T05:15:13.224Z,13.50
2023-04-09T05:17:43.123Z,13.32
2023-04-09T05:20:11.189Z,14.02
2023-04-09T05:22:47.815Z,14.05
2023-04-09T05:25:16.213Z,14.27
2023-04-09T05:27:43.798Z,13.07
2023-04-09T05:30:11.092Z,13.68
2023-04-09T05:32:39.190Z,12.85
2023-04-09T05:35:06.474Z,13.70
2023-04-09T05:37:38.898Z,14.90
2023-04-09T05:40:07.065Z,12.70
2023-04-09T05:42:34.227Z,14.57
2023-04-09T05:45:11.011Z,15.40
2023-04-09T05:47:45.123Z,14.85
2023-04-09T05:50:17.835Z,13.48
2023-04-09T05:52:45.158Z,14.80
2023-04-09T05:55:14.278Z,14.77
2023-04-09T05:57:49.120Z,15.90
2023-04-09T06:00:18.237Z,15.23
2023-04-09T06:02:46.696Z,16.23
2023-04-09T06:05:14.084Z,15.80
2023-04-09T06:07:41.283Z,16.52
2023-04-09T06:10:08.745Z,17.30
2023-04-09T06:12:36.277Z,16.65
2023-04-09T06:15:05.400Z,15.75
2023-04-09T06:17:33.244Z,16.88
2023-04-09T06:20:00.459Z,16.42
2023-04-09T06:22:27.551Z,15.65
2023-04-09T06:24:54.645Z,15.90
2023-04-09T06:27:22.128Z,16.33
2023-04-09T06:29:49.294Z,16.73
2023-04-09T06:32:16.483Z,16.02
2023-04-09T06:34:43.684Z,16.15
2023-04-09T06:37:10.791Z,15.98
2023-04-09T06:39:40.404Z,15.27
2023-04-09T06:42:09.641Z,15.88
2023-04-09T06:44:50.564Z,13.93
2023-04-09T06:47:17.796Z,14.68
2023-04-09T06:49:44.930Z,14.68
2023-04-09T06:52:12.069Z,15.73
2023-04-09T06:54:39.165Z,15.23
2023-04-09T06:57:07.461Z,15.35
2023-04-09T06:59:34.555Z,13.77
2023-04-09T07:02:01.736Z,14.82
2023-04-09T07:04:29.056Z,13.85
2023-04-09T07:06:59.084Z,14.73
2023-04-09T07:09:26.176Z,12.75
2023-04-09T07:11:53.294Z,12.40
2023-04-09T07:14:20.450Z,13.57
2023-04-09T07:16:47.578Z,13.05
2023-04-09T07:19:14.772Z,12.50
2023-04-09T07:21:42.313Z,14.30
2023-04-09T07:24:09.439Z,11.85
2023-04-09T07:26:36.565Z,12.80
2023-04-09T07:29:04.396Z,13.07
2023-04-09T07:31:32.805Z,13.02
2023-04-09T07:34:01.374Z,12.50
2023-04-09T07:36:28.958Z,13.02
2023-04-09T07:38:56.181Z,12.00
2023-04-09T07:41:23.409Z,12.65
2023-04-09T07:43:50.680Z,12.13
2023-04-09T07:46:24.088Z,13.60
2023-04-09T07:48:51.863Z,12.63
2023-04-09T07:51:19.461Z,11.95
2023-04-09T07:53:46.786Z,12.75
2023-04-09T07:56:14.201Z,12.70
2023-04-09T07:58:41.435Z,11.63
2023-04-09T08:01:09.302Z,11.98
2023-04-09T08:03:36.833Z,11.40
2023-04-09T08:06:04.384Z,12.00
2023-04-09T08:08:31.468Z,11.75
2023-04-09T08:10:58.604Z,11.80
2023-04-09T08:13:25.770Z,11.05
2023-04-09T08:15:53.009Z,11.48
2023-04-09T08:18:20.159Z,12.48
2023-04-09T08:20:47.400Z,12.35
2023-04-09T08:23:14.566Z,12.35
2023-04-09T08:25:41.687Z,12.02
2023-04-09T08:28:08.946Z,12.82
2023-04-09T08:30:36.348Z,12.32
2023-04-09T08:33:03.554Z,12.73
2023-04-09T08:35:31.134Z,13.55
2023-04-09T08:37:58.490Z,13.30
2023-04-09T08:40:25.773Z,11.63
2023-04-09T08:42:58.066Z,13.27
2023-04-09T08:45:25.805Z,13.07
2023-04-09T08:47:53.204Z,13.88
2023-04-09T08:50:20.648Z,12.48
2023-04-09T08:52:49.669Z,13.60
2023-04-09T08:55:16.819Z,13.55
2023-04-09T08:57:43.944Z,12.60
2023-04-09T09:00:11.416Z,13.10
2023-04-09T09:02:39.459Z,14.27
2023-04-09T09:05:07.273Z,14.38
2023-04-09T09:07:34.517Z,14.23
2023-04-09T09:10:04.352Z,14.55
2023-04-09T09:12:38.907Z,15.63
2023-04-09T09:15:07.482Z,15.65
2023-04-09T09:17:35.286Z,16.40
2023-04-09T09:20:19.383Z,15.23
2023-04-09T09:22:54.857Z,15.35
2023-04-09T09:25:26.251Z,17.55
2023-04-09T09:27:54.426Z,16.67
2023-04-09T09:30:22.793Z,16.20
2023-04-09T09:32:53.668Z,16.48
2023-04-09T09:35:21.195Z,17.38
2023-04-09T09:37:48.331Z,17.70
2023-04-09T09:40:27.843Z,16.50
2023-04-09T09:42:56.282Z,17.52
2023-04-09T09:45:24.881Z,18.23
2023-04-09T09:47:54.027Z,18.45
2023-04-09T09:50:23.989Z,17.23
2023-04-09T09:52:51.673Z,17.33
2023-04-09T09:55:19.182Z,16.23
2023-04-09T09:57:47.798Z,16.58
2023-04-09T10:00:16.912Z,16.38
2023-04-09T10:02:49.273Z,15.75
2023-04-09T10:05:16.472Z,15.50
2023-04-09T10:07:44.921Z,16.73
2023-04-09T10:10:12.124Z,15.15
2023-04-09T10:12:41.760Z,16.13
2023-04-09T10:15:10.025Z,16.13
2023-04-09T10:17:38.632Z,16.60
2023-04-09T10:20:12.046Z,15.10
2023-04-09T10:22:39.553Z,16.98
2023-04-09T10:25:06.951Z,15.07
2023-04-09T10:27:34.135Z,14.90
2023-04-09T10:30:02.219Z,14.73
2023-04-09T10:32:36.071Z,15.63
2023-04-09T10:35:04.160Z,14.90
2023-04-09T10:37:31.784Z,14.73
2023-04-09T10:39:59.048Z,13.27
2023-04-09T10:42:43.191Z,12.95
2023-04-09T10:45:14.725Z,14.43
2023-04-09T10:47:50.110Z,13.45
2023-04-09T10:50:25.672Z,12.88
2023-04-09T10:52:53.919Z,13.95
2023-04-09T10:55:41.561Z,13.55
2023-04-09T10:58:13.669Z,12.60
2023-04-09T11:00:44.799Z,13.30
2023-04-09T11:03:38.205Z,12.63
2023-04-09T11:06:09.190Z,12.65
2023-04-09T11:08:37.915Z,12.95
2023-04-09T11:11:05.916Z,13.57
2023-04-09T11:13:34.151Z,12.57
2023-04-09T11:16:03.941Z,13.85
2023-04-09T11:18:31.245Z,13.52
2023-04-09T11:20:59.485Z,12.60
2023-04-09T11:23:26.992Z,11.77
2023-04-09T11:25:54.840Z,11.13
2023-04-09T11:28:22.153Z,11.77
2023-04-09T11:30:51.373Z,10.73
2023-04-09T11:33:20.285Z,9.70
2023-04-09T11:35:48.216Z,9.90
2023-04-09T11:38:15.750Z,9.02
2023-04-09T11:40:48.094Z,8.43
2023-04-09T11:45:48.429Z,8.48
2023-04-09T11:48:18.193Z,8.90
2023-04-09T11:50:45.729Z,8.27
2023-04-09T11:53:16.776Z,8.25
2023-04-09T11:55:44.264Z,8.23
2023-04-09T11:58:11.594Z,7.70
2023-04-09T12:00:40.965Z,7.90
2023-04-09T12:03:08.483Z,7.55
2023-04-09T12:05:37.120Z,8.18
2023-04-09T12:08:07.981Z,8.55
2023-04-09T12:10:36.255Z,8.13
2023-04-09T12:13:04.364Z,8.32
2023-04-09T12:15:35.920Z,8.43
2023-04-09T12:18:03.717Z,8.25
2023-04-09T12:20:36.193Z,7.55
2023-04-09T12:23:04.814Z,7.80
2023-04-09T12:25:32.574Z,7.43
2023-04-09T12:27:59.941Z,7.75
2023-04-09T12:30:27.100Z,7.93
2023-04-09T12:32:54.911Z,7.20
2023-04-09T12:35:22.675Z,6.85
2023-04-09T12:37:50.195Z,7.90
2023-04-09T12:40:17.713Z,7.72
2023-04-09T12:42:46.221Z,7.13
2023-04-09T12:45:15.433Z,7.43
2023-04-09T12:47:42.881Z,7.28
2023-04-09T12:50:10.735Z,6.55
2023-04-09T12:52:38.166Z,7.20
2023-04-09T12:55:06.179Z,7.38
2023-04-09T12:57:33.374Z,7.78
2023-04-09T13:00:00.768Z,7.97
2023-04-09T13:02:28.183Z,8.25
2023-04-09T13:04:55.456Z,7.40
2023-04-09T13:07:22.807Z,7.85
2023-04-09T13:09:50.433Z,7.13
2023-04-09T13:12:17.778Z,7.55
2023-04-09T13:14:46.755Z,7.15
2023-04-09T13:17:14.097Z,6.90
2023-04-09T13:19:42.701Z,7.95
2023-04-09T13:22:10.558Z,8.65
2023-04-09T13:24:38.119Z,8.00
2023-04-09T13:27:06.126Z,8.45
2023-04-09T13:29:33.307Z,8.88
2023-04-09T13:32:05.759Z,8.48
2023-04-09T13:34:33.987Z,7.38
2023-04-09T13:37:01.586Z,8.07
2023-04-09T13:39:28.808Z,7.25
2023-04-09T13:41:56.246Z,7.10
2023-04-09T13:44:24.033Z,7.00
2023-04-09T13:46:51.373Z,7.40
2023-04-09T13:49:18.478Z,7.80
2023-04-09T13:51:45.856Z,8.30
2023-04-09T13:54:13.134Z,8.13
2023-04-09T13:56:41.179Z,7.25
2023-04-09T13:59:08.364Z,8.23
2023-04-09T14:01:35.737Z,7.65
2023-04-09T14:04:03.126Z,7.90
2023-04-09T14:06:31.289Z,7.43
2023-04-09T14:08:58.403Z,7.57
2023-04-09T14:11:25.500Z,8.00
2023-04-09T14:13:53.101Z,6.68
2023-04-09T14:16:20.758Z,7.65
2023-04-09T14:18:47.994Z,7.25
2023-04-09T14:21:15.463Z,7.10
2023-04-09T14:23:42.711Z,6.75
2023-04-09T14:26:09.857Z,7.32
2023-04-09T14:28:37.899Z,7.45
2023-04-09T14:31:05.213Z,7.82
2023-04-09T14:33:32.390Z,6.90
2023-04-09T14:35:59.595Z,7.38
2023-04-09T14:38:26.930Z,6.40
2023-04-09T14:40:54.130Z,7.32
2023-04-09T14:43:21.250Z,6.68
2023-04-09T14:45:48.441Z,6.82
2023-04-09T14:48:15.677Z,7.55
2023-04-09T14:50:43.077Z,7.32
2023-04-09T14:53:10.278Z,7.63
2023-04-09T14:55:37.435Z,7.65
2023-04-09T14:58:07.188Z,6.88
2023-04-09T15:00:34.495Z,7.25
2023-04-09T15:03:01.962Z,7.32
2023-04-09T15:05:29.314Z,7.88
2023-04-09T15:07:56.435Z,7.85
2023-04-09T15:10:23.654Z,7.70
2023-04-09T15:12:50.770Z,7.65
2023-04-09T15:15:17.984Z,7.80
2023-04-09T15:17:45.209Z,7.47
2023-04-09T15:20:13.840Z,7.35
2023-04-09T15:22:41.169Z,8.05
2023-04-09T15:25:08.500Z,7.38
2023-04-09T15:27:35.841Z,7.68
2023-04-09T15:30:03.138Z,6.72
2023-04-09T15:32:31.107Z,7.50
2023-04-09T15:34:58.989Z,8.15
2023-04-09T15:37:26.116Z,7.80
2023-04-09T15:39:53.207Z,7.85
2023-04-09T15:42:22.696Z,7.35
2023-04-09T15:44:50.387Z,7.32
2023-04-09T15:47:17.643Z,6.90
2023-04-09T15:49:45.040Z,7.70
2023-04-09T15:52:12.228Z,7.03
2023-04-09T15:54:39.341Z,7.43
2023-04-09T15:57:06.446Z,7.10
2023-04-09T15:59:33.598Z,6.82
2023-04-09T16:02:00.829Z,7.03
2023-04-09T16:04:28.141Z,6.38
2023-04-09T16:06:56.299Z,6.63
2023-04-09T16:09:23.989Z,7.00
2023-04-09T16:11:51.592Z,6.18
2023-04-09T16:14:18.839Z,6.70
2023-04-09T16:16:49.965Z,6.90
2023-04-09T16:19:17.846Z,6.57
2023-04-09T16:21:45.503Z,6.55
2023-04-09T16:24:12.996Z,6.63
2023-04-09T16:26:41.049Z,7.10
2023-04-09T16:29:08.480Z,6.53
2023-04-09T16:31:35.954Z,6.70
2023-04-09T16:34:03.140Z,6.82
2023-04-09T16:36:31.491Z,6.40
2023-04-09T16:38:58.677Z,6.72
2023-04-09T16:41:25.861Z,7.00
2023-04-09T16:43:53.300Z,6.47
2023-04-09T16:46:20.517Z,6.22
2023-04-09T16:48:47.722Z,6.22
2023-04-09T16:51:14.867Z,7.55
2023-04-09T16:53:42.015Z,6.85
2023-04-09T16:56:09.439Z,6.90
2023-04-09T16:58:36.538Z,6.50
2023-04-09T17:01:03.942Z,7.13
2023-04-09T17:03:31.267Z,7.20
2023-04-09T17:05:58.569Z,7.38
2023-04-09T17:08:25.691Z,7.95
2023-04-09T17:10:54.703Z,7.80
2023-04-09T17:13:21.928Z,7.57
2023-04-09T17:15:49.063Z,7.75
2023-04-09T17:18:16.452Z,7.47
2023-04-09T17:20:43.876Z,7.70
2023-04-09T17:23:11.329Z,7.72
2023-04-09T17:25:38.546Z,7.63
2023-04-09T17:28:05.975Z,7.65
2023-04-09T17:30:33.300Z,7.93
2023-04-09T17:33:00.686Z,7.28
2023-04-09T17:35:27.879Z,7.43
2023-04-09T17:37:55.870Z,7.38
2023-04-09T17:40:23.127Z,7.63
2023-04-09T17:42:50.376Z,7.68
2023-04-09T17:45:17.563Z,6.90
2023-04-09T17:47:45.638Z,7.82
2023-04-09T17:50:12.889Z,7.22
2023-04-09T17:52:40.684Z,7.55
2023-04-09T17:55:08.761Z,7.72
2023-04-09T17:57:35.972Z,7.47
2023-04-09T18:00:04.119Z,8.23
2023-04-09T18:02:31.953Z,8.18
2023-04-09T18:05:04.595Z,8.32
2023-04-09T18:07:33.982Z,7.10
2023-04-09T18:10:01.720Z,6.82
2023-04-09T18:12:28.908Z,8.27
2023-04-09T18:14:56.081Z,8.07
2023-04-09T18:17:23.481Z,7.70
2023-04-09T18:19:50.766Z,7.72
2023-04-09T18:22:17.919Z,8.63
2023-04-09T18:24:45.094Z,8.52
2023-04-09T18:27:12.218Z,8.32
2023-04-09T18:29:39.381Z,8.30
2023-04-09T18:32:06.576Z,8.55
2023-04-09T18:34:33.748Z,8.82
2023-04-09T18:37:01.399Z,8.85
2023-04-09T18:39:30.720Z,9.73
2023-04-09T18:41:57.872Z,8.85
2023-04-09T18:44:25.073Z,9.20
2023-04-09T18:46:52.336Z,10.18
2023-04-09T18:49:19.575Z,9.18
2023-04-09T18:51:47.341Z,10.18
2023-04-09T18:54:14.460Z,9.93
2023-04-09T18:56:41.624Z,10.05
2023-04-09T18:59:08.769Z,9.55
2023-04-09T19:01:36.150Z,9.25
2023-04-09T19:04:03.325Z,8.95
2023-04-09T19:06:30.553Z,9.05
2023-04-09T19:08:58.898Z,9.75
2023-04-09T19:11:26.414Z,8.95
2023-04-09T19:13:53.612Z,9.85
2023-04-09T19:16:21.521Z,10.13
2023-04-09T19:18:48.884Z,9.60
2023-04-09T19:21:17.818Z,11.00
2023-04-09T19:23:45.635Z,10.13
2023-04-09T19:26:12.886Z,10.30
2023-04-09T19:28:40.033Z,9.77
2023-04-09T19:31:09.256Z,9.88
2023-04-09T19:33:36.510Z,10.25
2023-04-09T19:36:04.175Z,9.68
2023-04-09T19:38:31.351Z,10.00
2023-04-09T19:40:58.500Z,9.73
2023-04-09T19:43:25.705Z,9.25
2023-04-09T19:45:52.795Z,10.18
2023-04-09T19:48:19.995Z,9.50
2023-04-09T19:50:48.325Z,10.00
2023-04-09T19:53:15.786Z,10.30
2023-04-09T19:55:42.912Z,9.73
2023-04-09T19:58:10.020Z,9.20
2023-04-09T20:00:37.323Z,10.32
2023-04-09T20:03:07.046Z,11.45
2023-04-09T20:05:34.415Z,10.55
2023-04-09T20:08:01.601Z,9.50
2023-04-09T20:10:28.790Z,10.75
2023-04-09T20:12:56.084Z,12.05
2023-04-09T20:15:23.293Z,12.10
2023-04-09T20:17:51.221Z,11.57
2023-04-09T20:20:19.845Z,11.73
2023-04-09T20:22:55.621Z,12.43
2023-04-09T20:25:23.522Z,11.95
2023-04-09T20:27:52.799Z,12.27
2023-04-09T20:30:20.017Z,11.20
2023-04-09T20:32:48.901Z,13.38
2023-04-09T20:35:16.365Z,12.55
2023-04-09T20:37:44.106Z,12.73
2023-04-09T20:40:14.504Z,11.93
2023-04-09T20:42:42.002Z,12.38
2023-04-09T20:45:09.566Z,11.93
2023-04-09T20:47:36.869Z,11.20
2023-04-09T20:50:04.938Z,11.15
2023-04-09T20:52:32.324Z,11.10
2023-04-09T20:55:00.866Z,11.30
2023-04-09T20:57:28.161Z,12.18
2023-04-09T20:59:55.231Z,13.48
2023-04-09T21:02:22.820Z,13.82
2023-04-09T21:04:50.038Z,12.27
2023-04-09T21:07:17.231Z,12.18
2023-04-09T21:09:44.394Z,11.70
2023-04-09T21:12:11.490Z,10.65
2023-04-09T21:14:38.629Z,11.20
2023-04-09T21:17:05.840Z,10.95
2023-04-09T21:19:33.149Z,11.02
2023-04-09T21:22:00.331Z,11.48
2023-04-09T21:24:27.750Z,11.38
2023-04-09T21:26:55.457Z,10.70
2023-04-09T21:29:22.578Z,11.98
2023-04-09T21:31:49.979Z,10.65
2023-04-09T21:34:17.198Z,11.27
2023-04-09T21:36:45.534Z,10.15
2023-04-09T21:39:12.897Z,11.10
2023-04-09T21:41:40.147Z,11.57
2023-04-09T21:44:10.048Z,10.95
2023-04-09T21:46:37.528Z,10.18
2023-04-09T21:49:05.003Z,10.68
2023-04-09T21:51:32.550Z,10.38
2023-04-09T21:54:06.269Z,10.63
2023-04-09T21:56:34.013Z,12.30
2023-04-09T21:59:01.184Z,12.65
2023-04-09T22:01:30.555Z,12.43
2023-04-09T22:03:59.030Z,12.10
2023-04-09T22:06:29.558Z,12.35
2023-04-09T22:08:57.838Z,13.07
2023-04-09T22:11:27.522Z,13.68
2023-04-09T22:13:55.922Z,13.18
2023-04-09T22:16:23.564Z,12.68
2023-04-09T22:18:51.503Z,13.15
2023-04-09T22:21:18.956Z,13.20
2023-04-09T22:23:46.089Z,13.45
2023-04-09T22:26:13.216Z,13.25
2023-04-09T22:28:40.410Z,13.32
2023-04-09T22:31:07.626Z,12.13
2023-04-09T22:33:34.798Z,12.85
2023-04-09T22:36:02.019Z,13.13
2023-04-09T22:38:29.264Z,13.50
2023-04-09T22:40:56.343Z,13.52
2023-04-09T22:43:23.472Z,13.23
2023-04-09T22:45:54.538Z,13.07
2023-04-09T22:48:22.990Z,12.30
2023-04-09T22:50:50.854Z,13.00
2023-04-09T22:53:21.777Z,12.05
2023-04-09T22:55:54.505Z,12.30
2023-04-09T22:58:21.727Z,11.98
2023-04-09T23:00:49.622Z,13.48
2023-04-09T23:03:17.215Z,12.50
2023-04-09T23:05:44.473Z,12.45
2023-04-09T23:08:12.031Z,12.27
2023-04-09T23:10:39.210Z,12.10
2023-04-09T23:13:06.463Z,13.25
2023-04-09T23:15:33.679Z,13.00
2023-04-09T23:18:00.934Z,12.45
2023-04-09T23:20:28.118Z,12.57
2023-04-09T23:22:55.259Z,13.20
2023-04-09T23:25:22.886Z,13.30
2023-04-09T23:27:50.217Z,12.73
2023-04-09T23:30:18.045Z,13.98
2023-04-09T23:32:45.772Z,12.80
2023-04-09T23:35:13.132Z,12.80
2023-04-09T23:37:40.904Z,13.25
2023-04-09T23:40:08.392Z,13.13
2023-04-09T23:42:35.952Z,13.45
2023-04-09T23:45:04.359Z,13.10
2023-04-09T23:47:36.385Z,12.15
2023-04-09T23:50:04.968Z,12.18
2023-04-09T23:52:37.010Z,12.52
2023-04-09T23:55:04.688Z,12.27
2023-04-09T23:57:31.885Z,12.18
2023-04-09T23:59:59.017Z,11.93
